Time,TemperatureF,DewpointF,PressureIn,WindDirection,WindDirectionDegrees,WindSpeedMPH,WindSpeedGustMPH,Humidity,HourlyPrecipIn,Conditions,Clouds,dailyrainin,SoftwareType,DateUTC
2013-08-18 00:12:00,65.0,63.0,30.04,ENE,78,0.0,-999.0,93,-99.99,,,-99.99,,2013-08-18 05:12:00,
2013-08-18 00:22:00,65.0,63.0,30.04,ENE,78,0.0,-999.0,93,-99.99,,,-99.99,,2013-08-18 05:22:00,
2013-08-18 00:52:00,64.0,62.0,30.04,ENE,78,0.0,-999.0,93,-99.99,,,-99.99,,2013-08-18 05:52:00,
2013-08-18 01:11:00,64.0,62.0,30.05,ENE,78,0.0,-999.0,93,-99.99,,,-99.99,,2013-08-18 06:11:00,
2013-08-18 01:21:00,63.0,61.0,30.05,ENE,78,0.0,-999.0,94,-99.99,,,-99.99,,2013-08-18 06:21:00,
2013-08-18 01:52:00,63.0,61.0,30.05,ENE,78,0.0,-999.0,94,-99.99,,,-99.99,,2013-08-18 06:52:00,
2013-08-18 02:22:00,62.0,60.0,30.06,ENE,78,0.0,-999.0,94,-99.99,,,-99.99,,2013-08-18 07:22:00,
2013-08-18 02:52:00,62.0,60.0,30.06,ENE,78,0.0,-999.0,94,-99.99,,,-99.99,,2013-08-18 07:52:00,
2013-08-18 03:12:00,62.0,61.0,30.06,ENE,78,0.0,-999.0,95,-99.99,,,-99.99,,2013-08-18 08:12:00,
2013-08-18 03:21:00,62.0,61.0,30.06,ENE,78,0.0,-999.0,95,-99.99,,,-99.99,,2013-08-18 08:21:00,
2013-08-18 03:52:00,62.0,61.0,30.05,ENE,78,0.0,-999.0,95,-99.99,,,-99.99,,2013-08-18 08:52:00,
2013-08-18 04:11:00,61.0,60.0,30.05,ENE,78,0.0,-999.0,95,-99.99,,,-99.99,,2013-08-18 09:11:00,
2013-08-18 04:21:00,61.0,60.0,30.05,ENE,78,0.0,-999.0,95,-99.99,,,-99.99,,2013-08-18 09:21:00,
2013-08-18 04:43:00,61.0,60.0,30.05,ENE,78,0.0,-999.0,95,-99.99,,,-99.99,,2013-08-18 09:43:00,
2013-08-18 04:53:00,61.0,60.0,30.05,ENE,78,0.0,-999.0,95,-99.99,,,-99.99,,2013-08-18 09:53:00,
2013-08-18 05:13:00,61.0,60.0,30.05,ENE,78,0.0,-999.0,95,-99.99,,,-99.99,,2013-08-18 10:13:00,
2013-08-18 05:22:00,61.0,60.0,30.05,ENE,78,0.0,-999.0,95,-99.99,,,-99.99,,2013-08-18 10:22:00,
2013-08-18 05:52:00,60.0,59.0,30.06,ENE,78,0.0,-999.0,95,-99.99,,,-99.99,,2013-08-18 10:52:00,
2013-08-18 06:11:00,60.0,59.0,30.06,ENE,78,0.0,-999.0,95,-99.99,,,-99.99,,2013-08-18 11:11:00,
2013-08-18 06:22:00,60.0,59.0,30.06,ENE,78,0.0,-999.0,95,-99.99,,,-99.99,,2013-08-18 11:22:00,
2013-08-18 06:52:00,60.0,59.0,30.07,ENE,78,0.0,-999.0,95,-99.99,,,-99.99,,2013-08-18 11:52:00,
2013-08-18 07:11:00,60.0,59.0,30.08,ENE,78,0.0,-999.0,95,-99.99,,,-99.99,,2013-08-18 12:11:00,
2013-08-18 07:21:00,60.0,59.0,30.08,ENE,78,0.0,-999.0,95,-99.99,,,-99.99,,2013-08-18 12:21:00,
2013-08-18 07:52:00,60.0,59.0,30.09,ENE,78,0.0,-999.0,95,-99.99,,,-99.99,,2013-08-18 12:52:00,
2013-08-18 08:11:00,60.0,59.0,30.09,ENE,78,0.0,-999.0,96,-99.99,,,-99.99,,2013-08-18 13:11:00,
2013-08-18 08:21:00,61.0,60.0,30.09,ENE,78,0.0,-999.0,95,-99.99,,,-99.99,,2013-08-18 13:21:00,
2013-08-18 08:52:00,62.0,61.0,30.09,ENE,78,0.0,-999.0,96,-99.99,,,-99.99,,2013-08-18 13:52:00,
2013-08-18 09:11:00,63.0,62.0,30.10,ENE,78,0.0,-999.0,96,-99.99,,,-99.99,,2013-08-18 14:11:00,
2013-08-18 09:21:00,64.0,63.0,30.10,ENE,78,0.0,-999.0,96,-99.99,,,-99.99,,2013-08-18 14:21:00,
2013-08-18 09:53:00,66.0,64.0,30.10,ENE,78,0.0,-999.0,94,-99.99,,,-99.99,,2013-08-18 14:53:00,
2013-08-18 10:11:00,68.0,66.0,30.10,ENE,78,0.0,-999.0,92,-99.99,,,-99.99,,2013-08-18 15:11:00,
2013-08-18 10:22:00,70.0,66.0,30.10,ENE,78,0.0,-999.0,87,-99.99,,,-99.99,,2013-08-18 15:22:00,
2013-08-18 10:43:00,73.0,67.0,30.09,SE,131,0.0,-999.0,82,-99.99,,,-99.99,,2013-08-18 15:43:00,
2013-08-18 10:54:00,74.0,67.0,30.09,SE,126,0.0,-999.0,80,-99.99,,,-99.99,,2013-08-18 15:54:00,
2013-08-18 11:13:00,75.0,67.0,30.09,East,101,0.0,-999.0,76,-99.99,,,-99.99,,2013-08-18 16:13:00,
2013-08-18 11:23:00,75.0,67.0,30.09,East,87,0.0,-999.0,76,-99.99,,,-99.99,,2013-08-18 16:23:00,
2013-08-18 11:42:00,76.0,66.0,30.09,ENE,65,0.0,-999.0,72,-99.99,,,-99.99,,2013-08-18 16:42:00,
2013-08-18 11:52:00,76.0,66.0,30.09,ESE,103,0.0,-999.0,71,-99.99,,,-99.99,,2013-08-18 16:52:00,
2013-08-18 12:13:00,76.0,65.0,30.09,NE,51,0.0,-999.0,69,-99.99,,,-99.99,,2013-08-18 17:13:00,
2013-08-18 12:23:00,76.0,65.0,30.09,ENE,61,0.0,-999.0,70,-99.99,,,-99.99,,2013-08-18 17:23:00,
2013-08-18 12:52:00,78.0,65.0,30.08,ENE,67,1.0,-999.0,65,-99.99,,,-99.99,,2013-08-18 17:52:00,
2013-08-18 13:12:00,78.0,67.0,30.07,NNW,338,0.0,-999.0,70,-99.99,,,-99.99,,2013-08-18 18:12:00,
2013-08-18 13:21:00,79.0,66.0,30.07,East,92,0.0,-999.0,65,-99.99,,,-99.99,,2013-08-18 18:21:00,
2013-08-18 13:52:00,80.0,65.0,30.06,NE,49,0.0,-999.0,61,-99.99,,,-99.99,,2013-08-18 18:52:00,
2013-08-18 14:11:00,80.0,66.0,30.06,ENE,74,0.0,-999.0,63,-99.99,,,-99.99,,2013-08-18 19:11:00,
2013-08-18 14:22:00,81.0,65.0,30.05,East,92,0.0,-999.0,58,-99.99,,,-99.99,,2013-08-18 19:22:00,
2013-08-18 14:52:00,81.0,66.0,30.04,ENE,77,0.0,-999.0,60,-99.99,,,-99.99,,2013-08-18 19:52:00,
2013-08-18 15:12:00,81.0,65.0,30.03,SSW,209,0.0,-999.0,58,-99.99,,,-99.99,,2013-08-18 20:12:00,
2013-08-18 15:22:00,82.0,67.0,30.03,SSE,166,0.0,-999.0,61,-99.99,,,-99.99,,2013-08-18 20:22:00,
2013-08-18 15:52:00,81.0,67.0,30.03,NE,55,0.0,-999.0,62,-99.99,,,-99.99,,2013-08-18 20:52:00,
2013-08-18 16:11:00,82.0,66.0,30.02,ESE,123,0.0,-999.0,58,-99.99,,,-99.99,,2013-08-18 21:11:00,
2013-08-18 16:21:00,83.0,64.0,30.02,East,90,0.0,-999.0,53,-99.99,,,-99.99,,2013-08-18 21:21:00,
2013-08-18 16:53:00,84.0,65.0,30.01,East,90,0.0,-999.0,53,-99.99,,,-99.99,,2013-08-18 21:53:00,
2013-08-18 17:13:00,83.0,65.0,30.01,East,94,0.0,-999.0,55,-99.99,,,-99.99,,2013-08-18 22:13:00,
2013-08-18 17:23:00,82.0,67.0,30.01,East,90,0.0,-999.0,61,-99.99,,,-99.99,,2013-08-18 22:23:00,
2013-08-18 17:42:00,81.0,67.0,30.01,East,90,0.0,-999.0,62,-99.99,,,-99.99,,2013-08-18 22:42:00,
2013-08-18 17:52:00,81.0,65.0,30.01,East,95,0.0,-999.0,58,-99.99,,,-99.99,,2013-08-18 22:52:00,
2013-08-18 18:11:00,82.0,66.0,30.01,East,95,0.0,-999.0,59,-99.99,,,-99.99,,2013-08-18 23:11:00,
2013-08-18 18:22:00,82.0,65.0,30.01,East,79,0.0,-999.0,57,-99.99,,,-99.99,,2013-08-18 23:22:00,
2013-08-18 18:52:00,83.0,69.0,30.00,East,79,0.0,-999.0,62,-99.99,,,-99.99,,2013-08-18 23:52:00,
2013-08-18 19:11:00,83.0,69.0,30.00,East,79,0.0,-999.0,62,-99.99,,,-99.99,,2013-08-19 00:11:00,
2013-08-18 19:21:00,82.0,68.0,29.99,East,79,0.0,-999.0,63,-99.99,,,-99.99,,2013-08-19 00:21:00,
2013-08-18 19:42:00,81.0,69.0,30.00,East,79,0.0,-999.0,68,-99.99,,,-99.99,,2013-08-19 00:42:00,
2013-08-18 19:52:00,80.0,70.0,30.00,East,79,0.0,-999.0,71,-99.99,,,-99.99,,2013-08-19 00:52:00,
2013-08-18 20:11:00,79.0,70.0,30.01,East,79,0.0,-999.0,73,-99.99,,,-99.99,,2013-08-19 01:11:00,
2013-08-18 20:22:00,77.0,69.0,30.00,SE,146,0.0,-999.0,77,-99.99,,,-99.99,,2013-08-19 01:22:00,
2013-08-18 20:42:00,75.0,69.0,30.00,SE,146,0.0,-999.0,81,-99.99,,,-99.99,,2013-08-19 01:42:00,
2013-08-18 20:52:00,73.0,68.0,30.01,SE,146,0.0,-999.0,84,-99.99,,,-99.99,,2013-08-19 01:52:00,
2013-08-18 21:11:00,71.0,67.0,30.01,SE,146,0.0,-999.0,86,-99.99,,,-99.99,,2013-08-19 02:11:00,
2013-08-18 21:21:00,70.0,66.0,30.02,SE,146,0.0,-999.0,88,-99.99,,,-99.99,,2013-08-19 02:21:00,
2013-08-18 21:42:00,69.0,66.0,30.03,SE,146,0.0,-999.0,90,-99.99,,,-99.99,,2013-08-19 02:42:00,
2013-08-18 21:52:00,69.0,66.0,30.03,SE,146,0.0,-999.0,91,-99.99,,,-99.99,,2013-08-19 02:52:00,
2013-08-18 22:11:00,68.0,65.0,30.04,SE,146,0.0,-999.0,91,-99.99,,,-99.99,,2013-08-19 03:11:00,
2013-08-18 22:21:00,68.0,66.0,30.04,SE,146,0.0,-999.0,92,-99.99,,,-99.99,,2013-08-19 03:21:00,
2013-08-18 22:42:00,67.0,65.0,30.04,SE,146,0.0,-999.0,92,-99.99,,,-99.99,,2013-08-19 03:42:00,
2013-08-18 22:53:00,67.0,65.0,30.04,SE,146,0.0,-999.0,93,-99.99,,,-99.99,,2013-08-19 03:53:00,
2013-08-18 23:12:00,67.0,65.0,30.04,SE,146,0.0,-999.0,93,-99.99,,,-99.99,,2013-08-19 04:12:00,
2013-08-18 23:23:00,66.0,64.0,30.05,SE,146,0.0,-999.0,93,-99.99,,,-99.99,,2013-08-19 04:23:00,
2013-08-18 23:53:00,66.0,64.0,30.05,SE,146,0.0,-999.0,93,-99.99,,,-99.99,,2013-08-19 04:53:00,